<?xml version="1.0" encoding="UTF-8"?>
<gpx version="1.1" creator="2bulu-scraper" xmlns="http://www.topografix.com/GPX/1/1">
  <metadata><name>泸州大旺竹海徒步</name><desc>source: 2bulu.com trackId=76052335; exported 2026-09-01T14:54:21.783Z</desc>
    <bounds minlat="28.6362288" minlon="105.5336057" maxlat="28.6568448" maxlon="105.5456103"/>
    <link href="https://www.2bulu.com/track/t-iumPQw1yrB3p%252FR2KBg5Tzw%253D%253D.htm"><text>2bulu 源页面</text></link>
  </metadata>
  <wpt lat="28.6543949" lon="105.5430811"><ele>663</ele><name>
        </name></wpt>
  <wpt lat="28.6531591" lon="105.5435163"><ele>721</ele><name>
        </name></wpt>
  <wpt lat="28.6500693" lon="105.5437124"><ele>685</ele><name>
        </name></wpt>
  <wpt lat="28.6376482" lon="105.537722"><ele>669</ele><name>
        </name></wpt>
  <wpt lat="28.6553903" lon="105.5392743"><ele>627</ele><name>
        </name></wpt>
  <trk><name>泸州大旺竹海徒步</name>
      <trkseg>
        <trkpt lat="28.6543949" lon="105.5430811"><ele>663.08</ele><time>2025-12-12T21:35:39.000Z</time></trkpt>
        <trkpt lat="28.6543678" lon="105.5431464"><ele>663.08</ele><time>2025-12-12T21:35:53.000Z</time></trkpt>
        <trkpt lat="28.654315" lon="105.5432382"><ele>664</ele><time>2025-12-12T21:36:07.000Z</time></trkpt>
        <trkpt lat="28.654272" lon="105.5433453"><ele>666.25</ele><time>2025-12-12T21:36:23.000Z</time></trkpt>
        <trkpt lat="28.6542" lon="105.5434113"><ele>669.68</ele><time>2025-12-12T21:36:41.000Z</time></trkpt>
        <trkpt lat="28.6541201" lon="105.5434729"><ele>672.87</ele><time>2025-12-12T21:37:05.000Z</time></trkpt>
        <trkpt lat="28.6540281" lon="105.5434661"><ele>675.71</ele><time>2025-12-12T21:37:21.000Z</time></trkpt>
        <trkpt lat="28.6539653" lon="105.5435244"><ele>678.86</ele><time>2025-12-12T21:37:41.000Z</time></trkpt>
        <trkpt lat="28.6538895" lon="105.5435094"><ele>680.9</ele><time>2025-12-12T21:38:13.000Z</time></trkpt>
        <trkpt lat="28.6538095" lon="105.5435408"><ele>686.53</ele><time>2025-12-12T21:38:35.000Z</time></trkpt>
        <trkpt lat="28.6537209" lon="105.5435563"><ele>690.4</ele><time>2025-12-12T21:39:01.000Z</time></trkpt>
        <trkpt lat="28.65363" lon="105.5435403"><ele>694.62</ele><time>2025-12-12T21:39:21.000Z</time></trkpt>
        <trkpt lat="28.653542" lon="105.5434991"><ele>699</ele><time>2025-12-12T21:39:47.000Z</time></trkpt>
        <trkpt lat="28.6534942" lon="105.5434108"><ele>702.19</ele><time>2025-12-12T21:40:09.000Z</time></trkpt>
        <trkpt lat="28.6534323" lon="105.5434314"><ele>705.79</ele><time>2025-12-12T21:40:37.000Z</time></trkpt>
        <trkpt lat="28.6533504" lon="105.5434946"><ele>707.25</ele><time>2025-12-12T21:40:51.000Z</time></trkpt>
        <trkpt lat="28.653253" lon="105.5435298"><ele>710.43</ele><time>2025-12-12T21:41:09.000Z</time></trkpt>
        <trkpt lat="28.6531591" lon="105.5435163"><ele>715.44</ele><time>2025-12-12T21:41:27.000Z</time></trkpt>
        <trkpt lat="28.6530671" lon="105.5435377"><ele>717.73</ele><time>2025-12-12T21:41:41.000Z</time></trkpt>
        <trkpt lat="28.6529848" lon="105.5435946"><ele>718.5</ele><time>2025-12-12T21:41:57.000Z</time></trkpt>
        <trkpt lat="28.6529304" lon="105.5436526"><ele>719.64</ele><time>2025-12-12T21:42:07.000Z</time></trkpt>
        <trkpt lat="28.6528686" lon="105.5437296"><ele>720.92</ele><time>2025-12-12T21:42:19.000Z</time></trkpt>
        <trkpt lat="28.6527962" lon="105.5438235"><ele>721.66</ele><time>2025-12-12T21:42:29.000Z</time></trkpt>
        <trkpt lat="28.6527172" lon="105.543908"><ele>721.66</ele><time>2025-12-12T21:42:39.000Z</time></trkpt>
        <trkpt lat="28.652628" lon="105.5439673"><ele>721.01</ele><time>2025-12-12T21:42:47.000Z</time></trkpt>
        <trkpt lat="28.6525333" lon="105.5439746"><ele>720.57</ele><time>2025-12-12T21:42:57.000Z</time></trkpt>
        <trkpt lat="28.6524407" lon="105.5439255"><ele>719.98</ele><time>2025-12-12T21:43:05.000Z</time></trkpt>
        <trkpt lat="28.652347" lon="105.5439149"><ele>720.1</ele><time>2025-12-12T21:43:13.000Z</time></trkpt>
        <trkpt lat="28.652307" lon="105.543932"><ele>720.05</ele><time>2025-12-12T21:43:17.000Z</time></trkpt>
        <trkpt lat="28.652267" lon="105.5440117"><ele>720.3</ele><time>2025-12-12T21:43:41.000Z</time></trkpt>
        <trkpt lat="28.6522586" lon="105.5441216"><ele>720.04</ele><time>2025-12-12T21:43:49.000Z</time></trkpt>
        <trkpt lat="28.6522189" lon="105.5442201"><ele>719.24</ele><time>2025-12-12T21:43:57.000Z</time></trkpt>
        <trkpt lat="28.652127" lon="105.5442694"><ele>717.97</ele><time>2025-12-12T21:44:09.000Z</time></trkpt>
        <trkpt lat="28.65203" lon="105.5442734"><ele>716.76</ele><time>2025-12-12T21:44:19.000Z</time></trkpt>
        <trkpt lat="28.6519305" lon="105.5442373"><ele>715.54</ele><time>2025-12-12T21:44:29.000Z</time></trkpt>
        <trkpt lat="28.6518229" lon="105.5442234"><ele>714.41</ele><time>2025-12-12T21:44:39.000Z</time></trkpt>
        <trkpt lat="28.6517307" lon="105.5442483"><ele>712.76</ele><time>2025-12-12T21:44:47.000Z</time></trkpt>
        <trkpt lat="28.6516419" lon="105.5442745"><ele>711.68</ele><time>2025-12-12T21:44:55.000Z</time></trkpt>
        <trkpt lat="28.6515465" lon="105.5442952"><ele>710.73</ele><time>2025-12-12T21:45:03.000Z</time></trkpt>
        <trkpt lat="28.6514429" lon="105.5443161"><ele>710.34</ele><time>2025-12-12T21:45:11.000Z</time></trkpt>
        <trkpt lat="28.6513395" lon="105.5443306"><ele>710.07</ele><time>2025-12-12T21:45:19.000Z</time></trkpt>
        <trkpt lat="28.6512429" lon="105.5443361"><ele>709.5</ele><time>2025-12-12T21:45:27.000Z</time></trkpt>
        <trkpt lat="28.6511428" lon="105.5443279"><ele>708.34</ele><time>2025-12-12T21:45:35.000Z</time></trkpt>
        <trkpt lat="28.6510523" lon="105.5443002"><ele>707.32</ele><time>2025-12-12T21:45:43.000Z</time></trkpt>
        <trkpt lat="28.6509756" lon="105.5442236"><ele>705.94</ele><time>2025-12-12T21:45:51.000Z</time></trkpt>
        <trkpt lat="28.6509558" lon="105.5441191"><ele>705.03</ele><time>2025-12-12T21:45:59.000Z</time></trkpt>
        <trkpt lat="28.6509847" lon="105.5440124"><ele>704.18</ele><time>2025-12-12T21:46:07.000Z</time></trkpt>
        <trkpt lat="28.6510282" lon="105.5438989"><ele>703.12</ele><time>2025-12-12T21:46:15.000Z</time></trkpt>
        <trkpt lat="28.6510872" lon="105.5437989"><ele>702.32</ele><time>2025-12-12T21:46:23.000Z</time></trkpt>
        <trkpt lat="28.6511207" lon="105.5436979"><ele>702.69</ele><time>2025-12-12T21:46:33.000Z</time></trkpt>
        <trkpt lat="28.6510727" lon="105.5436262"><ele>702.38</ele><time>2025-12-12T21:47:27.000Z</time></trkpt>
        <trkpt lat="28.6509842" lon="105.5436429"><ele>700.8</ele><time>2025-12-12T21:47:35.000Z</time></trkpt>
        <trkpt lat="28.6509057" lon="105.5437174"><ele>699.44</ele><time>2025-12-12T21:47:43.000Z</time></trkpt>
        <trkpt lat="28.6508467" lon="105.5438143"><ele>698.39</ele><time>2025-12-12T21:47:53.000Z</time></trkpt>
        <trkpt lat="28.650797" lon="105.5439301"><ele>697.58</ele><time>2025-12-12T21:48:09.000Z</time></trkpt>
        <trkpt lat="28.6507548" lon="105.5440015"><ele>697.47</ele><time>2025-12-12T21:48:23.000Z</time></trkpt>
        <trkpt lat="28.6507502" lon="105.5439366"><ele>696.01</ele><time>2025-12-12T21:48:37.000Z</time></trkpt>
        <trkpt lat="28.6507485" lon="105.5438213"><ele>694.75</ele><time>2025-12-12T21:48:47.000Z</time></trkpt>
        <trkpt lat="28.6507409" lon="105.5436937"><ele>691.68</ele><time>2025-12-12T21:48:57.000Z</time></trkpt>
        <trkpt lat="28.6506581" lon="105.5436449"><ele>688.28</ele><time>2025-12-12T21:49:07.000Z</time></trkpt>
        <trkpt lat="28.65057" lon="105.5436767"><ele>685.24</ele><time>2025-12-12T21:49:15.000Z</time></trkpt>
        <trkpt lat="28.6504665" lon="105.5437162"><ele>683.75</ele><time>2025-12-12T21:49:25.000Z</time></trkpt>
        <trkpt lat="28.6503662" lon="105.543744"><ele>683.52</ele><time>2025-12-12T21:49:33.000Z</time></trkpt>
        <trkpt lat="28.6502655" lon="105.5437474"><ele>683.91</ele><time>2025-12-12T21:49:41.000Z</time></trkpt>
        <trkpt lat="28.650171" lon="105.5437403"><ele>684.15</ele><time>2025-12-12T21:49:49.000Z</time></trkpt>
        <trkpt lat="28.6500693" lon="105.5437124"><ele>684.34</ele><time>2025-12-12T21:49:59.000Z</time></trkpt>
        <trkpt lat="28.6499843" lon="105.54366"><ele>684.68</ele><time>2025-12-12T21:50:09.000Z</time></trkpt>
        <trkpt lat="28.6499129" lon="105.5435754"><ele>685.18</ele><time>2025-12-12T21:50:17.000Z</time></trkpt>
        <trkpt lat="28.6498437" lon="105.5434852"><ele>685.84</ele><time>2025-12-12T21:50:25.000Z</time></trkpt>
        <trkpt lat="28.6497547" lon="105.5434315"><ele>685.82</ele><time>2025-12-12T21:50:33.000Z</time></trkpt>
        <trkpt lat="28.6496545" lon="105.5434447"><ele>684.66</ele><time>2025-12-12T21:50:41.000Z</time></trkpt>
        <trkpt lat="28.6495468" lon="105.5434915"><ele>684.22</ele><time>2025-12-12T21:50:49.000Z</time></trkpt>
        <trkpt lat="28.6494359" lon="105.5435521"><ele>684.48</ele><time>2025-12-12T21:50:57.000Z</time></trkpt>
        <trkpt lat="28.649343" lon="105.5436074"><ele>684.77</ele><time>2025-12-12T21:51:05.000Z</time></trkpt>
        <trkpt lat="28.6492437" lon="105.5436452"><ele>684.9</ele><time>2025-12-12T21:51:15.000Z</time></trkpt>
        <trkpt lat="28.6491468" lon="105.543665"><ele>684.76</ele><time>2025-12-12T21:51:25.000Z</time></trkpt>
        <trkpt lat="28.6490506" lon="105.5436703"><ele>684.34</ele><time>2025-12-12T21:51:35.000Z</time></trkpt>
        <trkpt lat="28.6489438" lon="105.543667"><ele>683.93</ele><time>2025-12-12T21:51:45.000Z</time></trkpt>
        <trkpt lat="28.6488423" lon="105.5436684"><ele>683.14</ele><time>2025-12-12T21:51:53.000Z</time></trkpt>
        <trkpt lat="28.6487401" lon="105.5436951"><ele>682.66</ele><time>2025-12-12T21:52:03.000Z</time></trkpt>
        <trkpt lat="28.6486383" lon="105.5437213"><ele>681.78</ele><time>2025-12-12T21:52:13.000Z</time></trkpt>
        <trkpt lat="28.6485342" lon="105.5437219"><ele>681.41</ele><time>2025-12-12T21:52:23.000Z</time></trkpt>
        <trkpt lat="28.6484269" lon="105.5437005"><ele>680.96</ele><time>2025-12-12T21:52:33.000Z</time></trkpt>
        <trkpt lat="28.6483212" lon="105.5436805"><ele>680.84</ele><time>2025-12-12T21:52:43.000Z</time></trkpt>
        <trkpt lat="28.6482195" lon="105.5436996"><ele>680.83</ele><time>2025-12-12T21:52:53.000Z</time></trkpt>
        <trkpt lat="28.6481364" lon="105.5437485"><ele>680.71</ele><time>2025-12-12T21:53:01.000Z</time></trkpt>
        <trkpt lat="28.648054" lon="105.5438117"><ele>680.2</ele><time>2025-12-12T21:53:09.000Z</time></trkpt>
        <trkpt lat="28.6479706" lon="105.5438795"><ele>680.5</ele><time>2025-12-12T21:53:17.000Z</time></trkpt>
        <trkpt lat="28.6478838" lon="105.5439506"><ele>680.54</ele><time>2025-12-12T21:53:25.000Z</time></trkpt>
        <trkpt lat="28.6478007" lon="105.544029"><ele>680.87</ele><time>2025-12-12T21:53:33.000Z</time></trkpt>
        <trkpt lat="28.6477136" lon="105.5441176"><ele>681.25</ele><time>2025-12-12T21:53:41.000Z</time></trkpt>
        <trkpt lat="28.6476262" lon="105.5441749"><ele>681.67</ele><time>2025-12-12T21:53:49.000Z</time></trkpt>
        <trkpt lat="28.6475335" lon="105.5442173"><ele>681.87</ele><time>2025-12-12T21:53:57.000Z</time></trkpt>
        <trkpt lat="28.6474359" lon="105.5442477"><ele>681.24</ele><time>2025-12-12T21:54:05.000Z</time></trkpt>
        <trkpt lat="28.64734" lon="105.5442864"><ele>681.15</ele><time>2025-12-12T21:54:13.000Z</time></trkpt>
        <trkpt lat="28.6472536" lon="105.5443526"><ele>680.86</ele><time>2025-12-12T21:54:22.000Z</time></trkpt>
        <trkpt lat="28.6471797" lon="105.5444287"><ele>680.55</ele><time>2025-12-12T21:54:30.000Z</time></trkpt>
        <trkpt lat="28.6471637" lon="105.5444462"><ele>680.83</ele><time>2025-12-12T21:54:46.000Z</time></trkpt>
        <trkpt lat="28.6471167" lon="105.5444986"><ele>681.4</ele><time>2025-12-12T21:55:24.000Z</time></trkpt>
        <trkpt lat="28.6470514" lon="105.5445797"><ele>682.31</ele><time>2025-12-12T21:56:08.000Z</time></trkpt>
        <trkpt lat="28.6469878" lon="105.5446668"><ele>683.92</ele><time>2025-12-12T21:56:16.000Z</time></trkpt>
        <trkpt lat="28.6469361" lon="105.5447588"><ele>685.64</ele><time>2025-12-12T21:56:24.000Z</time></trkpt>
        <trkpt lat="28.6468821" lon="105.5448653"><ele>686.86</ele><time>2025-12-12T21:56:34.000Z</time></trkpt>
        <trkpt lat="28.6468193" lon="105.5449589"><ele>688.56</ele><time>2025-12-12T21:56:42.000Z</time></trkpt>
        <trkpt lat="28.6467379" lon="105.5450091"><ele>690.24</ele><time>2025-12-12T21:56:50.000Z</time></trkpt>
        <trkpt lat="28.6466364" lon="105.5450273"><ele>691.28</ele><time>2025-12-12T21:56:58.000Z</time></trkpt>
        <trkpt lat="28.6465366" lon="105.5450283"><ele>692.68</ele><time>2025-12-12T21:57:06.000Z</time></trkpt>
        <trkpt lat="28.6464251" lon="105.5450245"><ele>693.66</ele><time>2025-12-12T21:57:16.000Z</time></trkpt>
        <trkpt lat="28.6463255" lon="105.5450353"><ele>693.45</ele><time>2025-12-12T21:57:24.000Z</time></trkpt>
        <trkpt lat="28.6462284" lon="105.5450742"><ele>693.83</ele><time>2025-12-12T21:57:32.000Z</time></trkpt>
        <trkpt lat="28.6461342" lon="105.5451161"><ele>694.82</ele><time>2025-12-12T21:57:40.000Z</time></trkpt>
        <trkpt lat="28.6460437" lon="105.545147"><ele>695.38</ele><time>2025-12-12T21:57:48.000Z</time></trkpt>
        <trkpt lat="28.6459516" lon="105.545138"><ele>695.73</ele><time>2025-12-12T21:57:56.000Z</time></trkpt>
        <trkpt lat="28.645856" lon="105.5451137"><ele>695.18</ele><time>2025-12-12T21:58:04.000Z</time></trkpt>
        <trkpt lat="28.6457738" lon="105.5450617"><ele>694.42</ele><time>2025-12-12T21:58:12.000Z</time></trkpt>
        <trkpt lat="28.6456909" lon="105.5450084"><ele>692.56</ele><time>2025-12-12T21:58:20.000Z</time></trkpt>
        <trkpt lat="28.6455924" lon="105.5449865"><ele>690.84</ele><time>2025-12-12T21:58:30.000Z</time></trkpt>
        <trkpt lat="28.6455013" lon="105.5450273"><ele>689.54</ele><time>2025-12-12T21:58:40.000Z</time></trkpt>
        <trkpt lat="28.64541" lon="105.5450763"><ele>687.54</ele><time>2025-12-12T21:58:48.000Z</time></trkpt>
        <trkpt lat="28.6453193" lon="105.5451106"><ele>686.17</ele><time>2025-12-12T21:58:56.000Z</time></trkpt>
        <trkpt lat="28.6452296" lon="105.5451271"><ele>685.3</ele><time>2025-12-12T21:59:04.000Z</time></trkpt>
        <trkpt lat="28.6451457" lon="105.5451695"><ele>684.23</ele><time>2025-12-12T21:59:12.000Z</time></trkpt>
        <trkpt lat="28.6450629" lon="105.5452447"><ele>684.02</ele><time>2025-12-12T21:59:22.000Z</time></trkpt>
        <trkpt lat="28.6449784" lon="105.5453074"><ele>682.58</ele><time>2025-12-12T21:59:30.000Z</time></trkpt>
        <trkpt lat="28.6448824" lon="105.5453546"><ele>681.91</ele><time>2025-12-12T21:59:38.000Z</time></trkpt>
        <trkpt lat="28.6447932" lon="105.5454033"><ele>681.98</ele><time>2025-12-12T21:59:46.000Z</time></trkpt>
        <trkpt lat="28.6447143" lon="105.5454638"><ele>681.14</ele><time>2025-12-12T21:59:54.000Z</time></trkpt>
        <trkpt lat="28.6446344" lon="105.5455331"><ele>678.94</ele><time>2025-12-12T22:00:02.000Z</time></trkpt>
        <trkpt lat="28.6445436" lon="105.5455703"><ele>677.02</ele><time>2025-12-12T22:00:10.000Z</time></trkpt>
        <trkpt lat="28.6444475" lon="105.5455611"><ele>675.64</ele><time>2025-12-12T22:00:18.000Z</time></trkpt>
        <trkpt lat="28.644347" lon="105.5455394"><ele>673.83</ele><time>2025-12-12T22:00:26.000Z</time></trkpt>
        <trkpt lat="28.6442465" lon="105.5455157"><ele>672.57</ele><time>2025-12-12T22:00:34.000Z</time></trkpt>
        <trkpt lat="28.6441505" lon="105.5454773"><ele>671.7</ele><time>2025-12-12T22:00:42.000Z</time></trkpt>
        <trkpt lat="28.6440543" lon="105.5454404"><ele>670.94</ele><time>2025-12-12T22:00:50.000Z</time></trkpt>
        <trkpt lat="28.6439562" lon="105.5454464"><ele>669.68</ele><time>2025-12-12T22:00:58.000Z</time></trkpt>
        <trkpt lat="28.6438509" lon="105.5454808"><ele>669.56</ele><time>2025-12-12T22:01:08.000Z</time></trkpt>
        <trkpt lat="28.6437479" lon="105.5455318"><ele>669.03</ele><time>2025-12-12T22:01:18.000Z</time></trkpt>
        <trkpt lat="28.6436536" lon="105.545559"><ele>668.4</ele><time>2025-12-12T22:01:26.000Z</time></trkpt>
        <trkpt lat="28.6435615" lon="105.5455532"><ele>668.23</ele><time>2025-12-12T22:01:34.000Z</time></trkpt>
        <trkpt lat="28.6434677" lon="105.5455472"><ele>667.96</ele><time>2025-12-12T22:01:42.000Z</time></trkpt>
        <trkpt lat="28.6433693" lon="105.5455608"><ele>668.73</ele><time>2025-12-12T22:01:52.000Z</time></trkpt>
        <trkpt lat="28.6432748" lon="105.545585"><ele>669</ele><time>2025-12-12T22:02:00.000Z</time></trkpt>
        <trkpt lat="28.6431815" lon="105.545609"><ele>669.05</ele><time>2025-12-12T22:02:08.000Z</time></trkpt>
        <trkpt lat="28.6430816" lon="105.5456103"><ele>669.23</ele><time>2025-12-12T22:02:16.000Z</time></trkpt>
        <trkpt lat="28.6429876" lon="105.5455622"><ele>669.19</ele><time>2025-12-12T22:02:24.000Z</time></trkpt>
        <trkpt lat="28.6429095" lon="105.5454774"><ele>669.13</ele><time>2025-12-12T22:02:32.000Z</time></trkpt>
        <trkpt lat="28.6428245" lon="105.5454046"><ele>669.52</ele><time>2025-12-12T22:02:40.000Z</time></trkpt>
        <trkpt lat="28.6427431" lon="105.5453389"><ele>670.56</ele><time>2025-12-12T22:02:48.000Z</time></trkpt>
        <trkpt lat="28.6426534" lon="105.5452857"><ele>671.2</ele><time>2025-12-12T22:02:56.000Z</time></trkpt>
        <trkpt lat="28.6425636" lon="105.5452445"><ele>672.43</ele><time>2025-12-12T22:03:04.000Z</time></trkpt>
        <trkpt lat="28.6424716" lon="105.5452369"><ele>673.03</ele><time>2025-12-12T22:03:12.000Z</time></trkpt>
        <trkpt lat="28.6423895" lon="105.5452008"><ele>673.12</ele><time>2025-12-12T22:03:20.000Z</time></trkpt>
        <trkpt lat="28.6423385" lon="105.545105"><ele>673.13</ele><time>2025-12-12T22:03:30.000Z</time></trkpt>
        <trkpt lat="28.642329" lon="105.5449833"><ele>673.87</ele><time>2025-12-12T22:03:40.000Z</time></trkpt>
        <trkpt lat="28.6423176" lon="105.5448703"><ele>675.51</ele><time>2025-12-12T22:03:48.000Z</time></trkpt>
        <trkpt lat="28.6422812" lon="105.5447663"><ele>676.85</ele><time>2025-12-12T22:03:58.000Z</time></trkpt>
        <trkpt lat="28.6422149" lon="105.5446792"><ele>677.93</ele><time>2025-12-12T22:04:14.000Z</time></trkpt>
        <trkpt lat="28.6421191" lon="105.5446295"><ele>679.04</ele><time>2025-12-12T22:04:24.000Z</time></trkpt>
        <trkpt lat="28.6420205" lon="105.5446083"><ele>679.45</ele><time>2025-12-12T22:04:32.000Z</time></trkpt>
        <trkpt lat="28.6419229" lon="105.5446043"><ele>680.07</ele><time>2025-12-12T22:04:40.000Z</time></trkpt>
        <trkpt lat="28.6418284" lon="105.544612"><ele>681</ele><time>2025-12-12T22:04:48.000Z</time></trkpt>
        <trkpt lat="28.6417297" lon="105.5446098"><ele>682.1</ele><time>2025-12-12T22:04:58.000Z</time></trkpt>
        <trkpt lat="28.6416344" lon="105.5446266"><ele>681.39</ele><time>2025-12-12T22:05:06.000Z</time></trkpt>
        <trkpt lat="28.6415397" lon="105.5446536"><ele>681.24</ele><time>2025-12-12T22:05:14.000Z</time></trkpt>
        <trkpt lat="28.6414492" lon="105.5446753"><ele>681.98</ele><time>2025-12-12T22:05:22.000Z</time></trkpt>
        <trkpt lat="28.6413482" lon="105.5446841"><ele>682.51</ele><time>2025-12-12T22:05:30.000Z</time></trkpt>
        <trkpt lat="28.6412443" lon="105.544684"><ele>682.62</ele><time>2025-12-12T22:05:38.000Z</time></trkpt>
        <trkpt lat="28.6411509" lon="105.5446354"><ele>682.92</ele><time>2025-12-12T22:05:46.000Z</time></trkpt>
        <trkpt lat="28.6410674" lon="105.5445696"><ele>682.92</ele><time>2025-12-12T22:05:54.000Z</time></trkpt>
        <trkpt lat="28.6409829" lon="105.5444949"><ele>683.09</ele><time>2025-12-12T22:06:02.000Z</time></trkpt>
        <trkpt lat="28.6409014" lon="105.5444222"><ele>683.34</ele><time>2025-12-12T22:06:10.000Z</time></trkpt>
        <trkpt lat="28.6408069" lon="105.5443608"><ele>684.27</ele><time>2025-12-12T22:06:20.000Z</time></trkpt>
        <trkpt lat="28.640715" lon="105.5443333"><ele>685.47</ele><time>2025-12-12T22:06:28.000Z</time></trkpt>
        <trkpt lat="28.640605" lon="105.5443211"><ele>686.79</ele><time>2025-12-12T22:06:38.000Z</time></trkpt>
        <trkpt lat="28.6404944" lon="105.5443105"><ele>687.72</ele><time>2025-12-12T22:06:44.000Z</time></trkpt>
        <trkpt lat="28.6403956" lon="105.5442993"><ele>690.12</ele><time>2025-12-12T22:06:52.000Z</time></trkpt>
        <trkpt lat="28.640301" lon="105.5442524"><ele>692.41</ele><time>2025-12-12T22:07:04.000Z</time></trkpt>
        <trkpt lat="28.6402379" lon="105.5441697"><ele>692.73</ele><time>2025-12-12T22:07:12.000Z</time></trkpt>
        <trkpt lat="28.6401831" lon="105.5440789"><ele>692.97</ele><time>2025-12-12T22:07:20.000Z</time></trkpt>
        <trkpt lat="28.6401367" lon="105.5439783"><ele>693.31</ele><time>2025-12-12T22:07:28.000Z</time></trkpt>
        <trkpt lat="28.6401075" lon="105.5438649"><ele>693.3</ele><time>2025-12-12T22:07:36.000Z</time></trkpt>
        <trkpt lat="28.6401064" lon="105.5437494"><ele>693.65</ele><time>2025-12-12T22:07:44.000Z</time></trkpt>
        <trkpt lat="28.6401105" lon="105.5436363"><ele>693.8</ele><time>2025-12-12T22:07:52.000Z</time></trkpt>
        <trkpt lat="28.6400808" lon="105.543529"><ele>693.77</ele><time>2025-12-12T22:08:00.000Z</time></trkpt>
        <trkpt lat="28.6400319" lon="105.5434393"><ele>693.11</ele><time>2025-12-12T22:08:06.000Z</time></trkpt>
        <trkpt lat="28.6399785" lon="105.5433543"><ele>692.89</ele><time>2025-12-12T22:08:14.000Z</time></trkpt>
        <trkpt lat="28.639918" lon="105.5432657"><ele>693.36</ele><time>2025-12-12T22:08:24.000Z</time></trkpt>
        <trkpt lat="28.6398605" lon="105.5431825"><ele>694.32</ele><time>2025-12-12T22:08:32.000Z</time></trkpt>
        <trkpt lat="28.6397848" lon="105.5431005"><ele>695.24</ele><time>2025-12-12T22:08:42.000Z</time></trkpt>
        <trkpt lat="28.6397045" lon="105.5430341"><ele>696.88</ele><time>2025-12-12T22:08:50.000Z</time></trkpt>
        <trkpt lat="28.6396163" lon="105.5429873"><ele>698.56</ele><time>2025-12-12T22:08:58.000Z</time></trkpt>
        <trkpt lat="28.6395276" lon="105.5429495"><ele>699.89</ele><time>2025-12-12T22:09:06.000Z</time></trkpt>
        <trkpt lat="28.6394418" lon="105.5429069"><ele>701.1</ele><time>2025-12-12T22:09:14.000Z</time></trkpt>
        <trkpt lat="28.6393509" lon="105.5428714"><ele>702.43</ele><time>2025-12-12T22:09:22.000Z</time></trkpt>
        <trkpt lat="28.6392538" lon="105.542869"><ele>703.96</ele><time>2025-12-12T22:09:30.000Z</time></trkpt>
        <trkpt lat="28.6391493" lon="105.5428858"><ele>705.28</ele><time>2025-12-12T22:09:40.000Z</time></trkpt>
        <trkpt lat="28.6390593" lon="105.5429243"><ele>705.4</ele><time>2025-12-12T22:09:48.000Z</time></trkpt>
        <trkpt lat="28.638958" lon="105.5429683"><ele>705.65</ele><time>2025-12-12T22:09:56.000Z</time></trkpt>
        <trkpt lat="28.6388523" lon="105.5430018"><ele>705.89</ele><time>2025-12-12T22:10:04.000Z</time></trkpt>
        <trkpt lat="28.6387455" lon="105.5430312"><ele>706.54</ele><time>2025-12-12T22:10:12.000Z</time></trkpt>
        <trkpt lat="28.6386508" lon="105.5430903"><ele>708.36</ele><time>2025-12-12T22:10:20.000Z</time></trkpt>
        <trkpt lat="28.6385656" lon="105.5431442"><ele>710.05</ele><time>2025-12-12T22:10:28.000Z</time></trkpt>
        <trkpt lat="28.6384765" lon="105.5431934"><ele>710.7</ele><time>2025-12-12T22:10:36.000Z</time></trkpt>
        <trkpt lat="28.6383827" lon="105.5432097"><ele>711.72</ele><time>2025-12-12T22:10:44.000Z</time></trkpt>
        <trkpt lat="28.6382928" lon="105.5431901"><ele>712.91</ele><time>2025-12-12T22:10:52.000Z</time></trkpt>
        <trkpt lat="28.6381978" lon="105.5431428"><ele>712.91</ele><time>2025-12-12T22:11:02.000Z</time></trkpt>
        <trkpt lat="28.6381028" lon="105.5430842"><ele>711.21</ele><time>2025-12-12T22:11:12.000Z</time></trkpt>
        <trkpt lat="28.6380533" lon="105.5429872"><ele>710.57</ele><time>2025-12-12T22:11:20.000Z</time></trkpt>
        <trkpt lat="28.6380154" lon="105.542881"><ele>710.9</ele><time>2025-12-12T22:11:28.000Z</time></trkpt>
        <trkpt lat="28.6379914" lon="105.5427748"><ele>711.87</ele><time>2025-12-12T22:11:34.000Z</time></trkpt>
        <trkpt lat="28.637996" lon="105.5426514"><ele>712.96</ele><time>2025-12-12T22:11:42.000Z</time></trkpt>
        <trkpt lat="28.6379887" lon="105.5425304"><ele>714.49</ele><time>2025-12-12T22:11:50.000Z</time></trkpt>
        <trkpt lat="28.6379674" lon="105.5424134"><ele>716.14</ele><time>2025-12-12T22:11:58.000Z</time></trkpt>
        <trkpt lat="28.6379161" lon="105.5423168"><ele>716.63</ele><time>2025-12-12T22:12:06.000Z</time></trkpt>
        <trkpt lat="28.637819" lon="105.5422806"><ele>716.1</ele><time>2025-12-12T22:12:14.000Z</time></trkpt>
        <trkpt lat="28.6377091" lon="105.5423116"><ele>716.14</ele><time>2025-12-12T22:12:22.000Z</time></trkpt>
        <trkpt lat="28.6376016" lon="105.5423368"><ele>715.82</ele><time>2025-12-12T22:12:30.000Z</time></trkpt>
        <trkpt lat="28.6374908" lon="105.54233"><ele>714.81</ele><time>2025-12-12T22:12:38.000Z</time></trkpt>
        <trkpt lat="28.637382" lon="105.5422995"><ele>714.11</ele><time>2025-12-12T22:12:46.000Z</time></trkpt>
        <trkpt lat="28.6372893" lon="105.5422238"><ele>713.79</ele><time>2025-12-12T22:12:54.000Z</time></trkpt>
        <trkpt lat="28.6372167" lon="105.5421295"><ele>713.71</ele><time>2025-12-12T22:13:02.000Z</time></trkpt>
        <trkpt lat="28.6371754" lon="105.5420229"><ele>713.7</ele><time>2025-12-12T22:13:10.000Z</time></trkpt>
        <trkpt lat="28.6371464" lon="105.5419197"><ele>713.85</ele><time>2025-12-12T22:13:18.000Z</time></trkpt>
        <trkpt lat="28.6371152" lon="105.5418219"><ele>714</ele><time>2025-12-12T22:13:26.000Z</time></trkpt>
        <trkpt lat="28.6370755" lon="105.5417144"><ele>713.63</ele><time>2025-12-12T22:13:36.000Z</time></trkpt>
        <trkpt lat="28.637035" lon="105.5416158"><ele>713.39</ele><time>2025-12-12T22:13:44.000Z</time></trkpt>
        <trkpt lat="28.6369719" lon="105.5415438"><ele>712.95</ele><time>2025-12-12T22:13:52.000Z</time></trkpt>
        <trkpt lat="28.6368832" lon="105.5414819"><ele>712.34</ele><time>2025-12-12T22:14:02.000Z</time></trkpt>
        <trkpt lat="28.6367824" lon="105.5414259"><ele>710.38</ele><time>2025-12-12T22:14:12.000Z</time></trkpt>
        <trkpt lat="28.6367274" lon="105.5413367"><ele>707.75</ele><time>2025-12-12T22:14:20.000Z</time></trkpt>
        <trkpt lat="28.6366901" lon="105.5412325"><ele>704.94</ele><time>2025-12-12T22:14:28.000Z</time></trkpt>
        <trkpt lat="28.6366519" lon="105.5411262"><ele>702</ele><time>2025-12-12T22:14:36.000Z</time></trkpt>
        <trkpt lat="28.6366076" lon="105.54102"><ele>699.95</ele><time>2025-12-12T22:14:44.000Z</time></trkpt>
        <trkpt lat="28.6365307" lon="105.5409437"><ele>699.25</ele><time>2025-12-12T22:14:52.000Z</time></trkpt>
        <trkpt lat="28.6364728" lon="105.5408421"><ele>699.08</ele><time>2025-12-12T22:15:02.000Z</time></trkpt>
        <trkpt lat="28.6364761" lon="105.5407241"><ele>698.43</ele><time>2025-12-12T22:15:10.000Z</time></trkpt>
        <trkpt lat="28.6365023" lon="105.5406046"><ele>697.82</ele><time>2025-12-12T22:15:18.000Z</time></trkpt>
        <trkpt lat="28.6364878" lon="105.5404921"><ele>697.71</ele><time>2025-12-12T22:15:26.000Z</time></trkpt>
        <trkpt lat="28.6364369" lon="105.5404004"><ele>697.75</ele><time>2025-12-12T22:15:34.000Z</time></trkpt>
        <trkpt lat="28.6363621" lon="105.5403381"><ele>697.48</ele><time>2025-12-12T22:15:42.000Z</time></trkpt>
        <trkpt lat="28.6362861" lon="105.5402648"><ele>697.06</ele><time>2025-12-12T22:15:50.000Z</time></trkpt>
        <trkpt lat="28.6362356" lon="105.5401717"><ele>697.21</ele><time>2025-12-12T22:15:58.000Z</time></trkpt>
        <trkpt lat="28.6362288" lon="105.5400613"><ele>696.8</ele><time>2025-12-12T22:16:06.000Z</time></trkpt>
        <trkpt lat="28.6362801" lon="105.5399546"><ele>696.08</ele><time>2025-12-12T22:16:14.000Z</time></trkpt>
        <trkpt lat="28.6363434" lon="105.5398543"><ele>695.19</ele><time>2025-12-12T22:16:22.000Z</time></trkpt>
        <trkpt lat="28.6364005" lon="105.5397456"><ele>694.58</ele><time>2025-12-12T22:16:32.000Z</time></trkpt>
        <trkpt lat="28.636447" lon="105.5396395"><ele>693.77</ele><time>2025-12-12T22:16:40.000Z</time></trkpt>
        <trkpt lat="28.636475" lon="105.5395376"><ele>692.92</ele><time>2025-12-12T22:16:48.000Z</time></trkpt>
        <trkpt lat="28.6365107" lon="105.5394381"><ele>691.97</ele><time>2025-12-12T22:16:56.000Z</time></trkpt>
        <trkpt lat="28.6365732" lon="105.5393417"><ele>691.22</ele><time>2025-12-12T22:17:06.000Z</time></trkpt>
        <trkpt lat="28.6366445" lon="105.539267"><ele>690.26</ele><time>2025-12-12T22:17:14.000Z</time></trkpt>
        <trkpt lat="28.6367154" lon="105.5391988"><ele>689.68</ele><time>2025-12-12T22:17:22.000Z</time></trkpt>
        <trkpt lat="28.6367894" lon="105.5391343"><ele>689.37</ele><time>2025-12-12T22:17:30.000Z</time></trkpt>
        <trkpt lat="28.6368721" lon="105.5390614"><ele>689.04</ele><time>2025-12-12T22:17:40.000Z</time></trkpt>
        <trkpt lat="28.6369598" lon="105.5389829"><ele>688.11</ele><time>2025-12-12T22:17:50.000Z</time></trkpt>
        <trkpt lat="28.6370478" lon="105.5389072"><ele>687.05</ele><time>2025-12-12T22:18:00.000Z</time></trkpt>
        <trkpt lat="28.637131" lon="105.5388479"><ele>685.62</ele><time>2025-12-12T22:18:08.000Z</time></trkpt>
        <trkpt lat="28.6371829" lon="105.5387492"><ele>684.18</ele><time>2025-12-12T22:18:18.000Z</time></trkpt>
        <trkpt lat="28.6372199" lon="105.5386359"><ele>682.95</ele><time>2025-12-12T22:18:28.000Z</time></trkpt>
        <trkpt lat="28.6372504" lon="105.5385247"><ele>680.86</ele><time>2025-12-12T22:18:36.000Z</time></trkpt>
        <trkpt lat="28.6372851" lon="105.5384199"><ele>679.43</ele><time>2025-12-12T22:18:44.000Z</time></trkpt>
        <trkpt lat="28.6373646" lon="105.5383581"><ele>677.8</ele><time>2025-12-12T22:18:54.000Z</time></trkpt>
        <trkpt lat="28.637454" lon="105.5383213"><ele>676.84</ele><time>2025-12-12T22:19:02.000Z</time></trkpt>
        <trkpt lat="28.6375353" lon="105.5382726"><ele>675.51</ele><time>2025-12-12T22:19:10.000Z</time></trkpt>
        <trkpt lat="28.6375809" lon="105.5381887"><ele>674.28</ele><time>2025-12-12T22:19:18.000Z</time></trkpt>
        <trkpt lat="28.6376099" lon="105.53808"><ele>673.25</ele><time>2025-12-12T22:19:26.000Z</time></trkpt>
        <trkpt lat="28.6376261" lon="105.5379681"><ele>671.94</ele><time>2025-12-12T22:19:34.000Z</time></trkpt>
        <trkpt lat="28.6376387" lon="105.5378547"><ele>670.54</ele><time>2025-12-12T22:19:42.000Z</time></trkpt>
        <trkpt lat="28.6376471" lon="105.5377462"><ele>669.47</ele><time>2025-12-12T22:19:50.000Z</time></trkpt>
        <trkpt lat="28.6376482" lon="105.537722"><ele>669.02</ele><time>2025-12-12T22:19:52.000Z</time></trkpt>
        <trkpt lat="28.6376709" lon="105.5376418"><ele>668.91</ele><time>2025-12-12T22:20:12.000Z</time></trkpt>
        <trkpt lat="28.6376948" lon="105.537525"><ele>668.13</ele><time>2025-12-12T22:20:20.000Z</time></trkpt>
        <trkpt lat="28.6377281" lon="105.5374118"><ele>667.11</ele><time>2025-12-12T22:20:28.000Z</time></trkpt>
        <trkpt lat="28.6377691" lon="105.5372946"><ele>667.3</ele><time>2025-12-12T22:20:38.000Z</time></trkpt>
        <trkpt lat="28.6377958" lon="105.5371809"><ele>666.8</ele><time>2025-12-12T22:20:46.000Z</time></trkpt>
        <trkpt lat="28.6378178" lon="105.5370749"><ele>666.57</ele><time>2025-12-12T22:20:54.000Z</time></trkpt>
        <trkpt lat="28.6378377" lon="105.5369544"><ele>666.54</ele><time>2025-12-12T22:21:04.000Z</time></trkpt>
        <trkpt lat="28.6379074" lon="105.5368633"><ele>665.75</ele><time>2025-12-12T22:21:14.000Z</time></trkpt>
        <trkpt lat="28.6380094" lon="105.5368192"><ele>663.49</ele><time>2025-12-12T22:21:22.000Z</time></trkpt>
        <trkpt lat="28.6381183" lon="105.536824"><ele>661.18</ele><time>2025-12-12T22:21:30.000Z</time></trkpt>
        <trkpt lat="28.6382176" lon="105.5368298"><ele>659.53</ele><time>2025-12-12T22:21:38.000Z</time></trkpt>
        <trkpt lat="28.6383165" lon="105.5368267"><ele>658.14</ele><time>2025-12-12T22:21:46.000Z</time></trkpt>
        <trkpt lat="28.6384084" lon="105.5367972"><ele>657.08</ele><time>2025-12-12T22:21:54.000Z</time></trkpt>
        <trkpt lat="28.6384787" lon="105.5367212"><ele>655.73</ele><time>2025-12-12T22:22:02.000Z</time></trkpt>
        <trkpt lat="28.6385009" lon="105.536614"><ele>654.83</ele><time>2025-12-12T22:22:10.000Z</time></trkpt>
        <trkpt lat="28.6384867" lon="105.5365326"><ele>653.79</ele><time>2025-12-12T22:22:18.000Z</time></trkpt>
        <trkpt lat="28.6384378" lon="105.5364382"><ele>653.35</ele><time>2025-12-12T22:22:34.000Z</time></trkpt>
        <trkpt lat="28.6383708" lon="105.5363374"><ele>653.02</ele><time>2025-12-12T22:22:44.000Z</time></trkpt>
        <trkpt lat="28.6382975" lon="105.5362453"><ele>652.04</ele><time>2025-12-12T22:22:54.000Z</time></trkpt>
        <trkpt lat="28.6382291" lon="105.5361574"><ele>650.92</ele><time>2025-12-12T22:23:03.000Z</time></trkpt>
        <trkpt lat="28.6381639" lon="105.5360581"><ele>649.63</ele><time>2025-12-12T22:23:13.000Z</time></trkpt>
        <trkpt lat="28.638106" lon="105.5359544"><ele>648.35</ele><time>2025-12-12T22:23:23.000Z</time></trkpt>
        <trkpt lat="28.6380829" lon="105.5358472"><ele>647.26</ele><time>2025-12-12T22:23:31.000Z</time></trkpt>
        <trkpt lat="28.6380828" lon="105.5357384"><ele>645.85</ele><time>2025-12-12T22:23:39.000Z</time></trkpt>
        <trkpt lat="28.6380989" lon="105.5356306"><ele>644.58</ele><time>2025-12-12T22:23:47.000Z</time></trkpt>
        <trkpt lat="28.6381404" lon="105.5355232"><ele>643.45</ele><time>2025-12-12T22:23:55.000Z</time></trkpt>
        <trkpt lat="28.6381939" lon="105.5354263"><ele>643.17</ele><time>2025-12-12T22:24:03.000Z</time></trkpt>
        <trkpt lat="28.638261" lon="105.5353243"><ele>643.09</ele><time>2025-12-12T22:24:13.000Z</time></trkpt>
        <trkpt lat="28.6383197" lon="105.5352281"><ele>642.48</ele><time>2025-12-12T22:24:21.000Z</time></trkpt>
        <trkpt lat="28.6383796" lon="105.5351251"><ele>642.08</ele><time>2025-12-12T22:24:31.000Z</time></trkpt>
        <trkpt lat="28.6384461" lon="105.5350278"><ele>641.56</ele><time>2025-12-12T22:24:41.000Z</time></trkpt>
        <trkpt lat="28.6385109" lon="105.5349244"><ele>640.31</ele><time>2025-12-12T22:24:51.000Z</time></trkpt>
        <trkpt lat="28.6385731" lon="105.5348192"><ele>638.84</ele><time>2025-12-12T22:25:01.000Z</time></trkpt>
        <trkpt lat="28.6386367" lon="105.5347162"><ele>637.23</ele><time>2025-12-12T22:25:11.000Z</time></trkpt>
        <trkpt lat="28.6386836" lon="105.5346072"><ele>635.58</ele><time>2025-12-12T22:25:21.000Z</time></trkpt>
        <trkpt lat="28.6387293" lon="105.5344951"><ele>634.55</ele><time>2025-12-12T22:25:45.000Z</time></trkpt>
        <trkpt lat="28.6388014" lon="105.5344173"><ele>633.77</ele><time>2025-12-12T22:25:55.000Z</time></trkpt>
        <trkpt lat="28.6388758" lon="105.5343534"><ele>632.5</ele><time>2025-12-12T22:26:03.000Z</time></trkpt>
        <trkpt lat="28.6389396" lon="105.5342696"><ele>631.7</ele><time>2025-12-12T22:26:11.000Z</time></trkpt>
        <trkpt lat="28.6389979" lon="105.5341878"><ele>629.9</ele><time>2025-12-12T22:26:19.000Z</time></trkpt>
        <trkpt lat="28.6390648" lon="105.534116"><ele>627.67</ele><time>2025-12-12T22:26:27.000Z</time></trkpt>
        <trkpt lat="28.6391507" lon="105.5340437"><ele>625.71</ele><time>2025-12-12T22:26:37.000Z</time></trkpt>
        <trkpt lat="28.6392396" lon="105.533994"><ele>624.58</ele><time>2025-12-12T22:26:45.000Z</time></trkpt>
        <trkpt lat="28.6393354" lon="105.5339692"><ele>623.48</ele><time>2025-12-12T22:26:53.000Z</time></trkpt>
        <trkpt lat="28.6394304" lon="105.5339567"><ele>622.76</ele><time>2025-12-12T22:27:01.000Z</time></trkpt>
        <trkpt lat="28.6395289" lon="105.5339589"><ele>621.85</ele><time>2025-12-12T22:27:09.000Z</time></trkpt>
        <trkpt lat="28.6396282" lon="105.5339773"><ele>621.2</ele><time>2025-12-12T22:27:17.000Z</time></trkpt>
        <trkpt lat="28.639724" lon="105.5340102"><ele>620.55</ele><time>2025-12-12T22:27:25.000Z</time></trkpt>
        <trkpt lat="28.6398203" lon="105.5340388"><ele>620.19</ele><time>2025-12-12T22:27:33.000Z</time></trkpt>
        <trkpt lat="28.6399244" lon="105.5340635"><ele>619.71</ele><time>2025-12-12T22:27:43.000Z</time></trkpt>
        <trkpt lat="28.6400267" lon="105.5340783"><ele>620.77</ele><time>2025-12-12T22:27:51.000Z</time></trkpt>
        <trkpt lat="28.6401265" lon="105.5340909"><ele>619.89</ele><time>2025-12-12T22:27:59.000Z</time></trkpt>
        <trkpt lat="28.6402324" lon="105.5341076"><ele>619.42</ele><time>2025-12-12T22:28:07.000Z</time></trkpt>
        <trkpt lat="28.6403279" lon="105.5341378"><ele>618.82</ele><time>2025-12-12T22:28:15.000Z</time></trkpt>
        <trkpt lat="28.6404225" lon="105.5341667"><ele>617.23</ele><time>2025-12-12T22:28:25.000Z</time></trkpt>
        <trkpt lat="28.6405243" lon="105.5342049"><ele>615.73</ele><time>2025-12-12T22:28:35.000Z</time></trkpt>
        <trkpt lat="28.6406177" lon="105.5342272"><ele>615.11</ele><time>2025-12-12T22:28:43.000Z</time></trkpt>
        <trkpt lat="28.6407185" lon="105.5342707"><ele>613.71</ele><time>2025-12-12T22:28:53.000Z</time></trkpt>
        <trkpt lat="28.6408094" lon="105.5343151"><ele>612.52</ele><time>2025-12-12T22:29:01.000Z</time></trkpt>
        <trkpt lat="28.6408986" lon="105.5343755"><ele>611.16</ele><time>2025-12-12T22:29:11.000Z</time></trkpt>
        <trkpt lat="28.6409922" lon="105.5344438"><ele>608.65</ele><time>2025-12-12T22:29:21.000Z</time></trkpt>
        <trkpt lat="28.6410899" lon="105.5345009"><ele>607.57</ele><time>2025-12-12T22:29:31.000Z</time></trkpt>
        <trkpt lat="28.6411771" lon="105.5345484"><ele>606.24</ele><time>2025-12-12T22:29:39.000Z</time></trkpt>
        <trkpt lat="28.6412733" lon="105.5345965"><ele>604.9</ele><time>2025-12-12T22:29:49.000Z</time></trkpt>
        <trkpt lat="28.6413791" lon="105.5346294"><ele>603.47</ele><time>2025-12-12T22:29:59.000Z</time></trkpt>
        <trkpt lat="28.6414744" lon="105.5346489"><ele>601.69</ele><time>2025-12-12T22:30:07.000Z</time></trkpt>
        <trkpt lat="28.641567" lon="105.5346542"><ele>600.03</ele><time>2025-12-12T22:30:15.000Z</time></trkpt>
        <trkpt lat="28.6416593" lon="105.534668"><ele>598.37</ele><time>2025-12-12T22:30:23.000Z</time></trkpt>
        <trkpt lat="28.641754" lon="105.53468"><ele>596.71</ele><time>2025-12-12T22:30:31.000Z</time></trkpt>
        <trkpt lat="28.6418521" lon="105.5346876"><ele>595.77</ele><time>2025-12-12T22:30:39.000Z</time></trkpt>
        <trkpt lat="28.6419468" lon="105.5346976"><ele>594.65</ele><time>2025-12-12T22:30:47.000Z</time></trkpt>
        <trkpt lat="28.6420425" lon="105.5347059"><ele>593.73</ele><time>2025-12-12T22:30:55.000Z</time></trkpt>
        <trkpt lat="28.6421488" lon="105.5347178"><ele>593.39</ele><time>2025-12-12T22:31:05.000Z</time></trkpt>
        <trkpt lat="28.6422345" lon="105.5347274"><ele>591.99</ele><time>2025-12-12T22:31:13.000Z</time></trkpt>
        <trkpt lat="28.6423221" lon="105.5347295"><ele>590.88</ele><time>2025-12-12T22:31:23.000Z</time></trkpt>
        <trkpt lat="28.6424119" lon="105.5347372"><ele>590</ele><time>2025-12-12T22:31:31.000Z</time></trkpt>
        <trkpt lat="28.6425182" lon="105.5347423"><ele>590.29</ele><time>2025-12-12T22:31:41.000Z</time></trkpt>
        <trkpt lat="28.6426175" lon="105.5347339"><ele>590.75</ele><time>2025-12-12T22:31:49.000Z</time></trkpt>
        <trkpt lat="28.6427129" lon="105.5347023"><ele>591.63</ele><time>2025-12-12T22:31:57.000Z</time></trkpt>
        <trkpt lat="28.6427985" lon="105.5346491"><ele>592.7</ele><time>2025-12-12T22:32:05.000Z</time></trkpt>
        <trkpt lat="28.6428818" lon="105.5345696"><ele>593.39</ele><time>2025-12-12T22:32:15.000Z</time></trkpt>
        <trkpt lat="28.6429652" lon="105.5344896"><ele>593.96</ele><time>2025-12-12T22:32:25.000Z</time></trkpt>
        <trkpt lat="28.6430399" lon="105.5344191"><ele>594.04</ele><time>2025-12-12T22:32:33.000Z</time></trkpt>
        <trkpt lat="28.6431135" lon="105.5343503"><ele>594.11</ele><time>2025-12-12T22:32:41.000Z</time></trkpt>
        <trkpt lat="28.6431914" lon="105.5342816"><ele>593.87</ele><time>2025-12-12T22:32:49.000Z</time></trkpt>
        <trkpt lat="28.6432688" lon="105.5342017"><ele>593.7</ele><time>2025-12-12T22:32:57.000Z</time></trkpt>
        <trkpt lat="28.643348" lon="105.5341296"><ele>593.13</ele><time>2025-12-12T22:33:05.000Z</time></trkpt>
        <trkpt lat="28.6434265" lon="105.5340655"><ele>592.97</ele><time>2025-12-12T22:33:13.000Z</time></trkpt>
        <trkpt lat="28.6435179" lon="105.5340193"><ele>592.58</ele><time>2025-12-12T22:33:21.000Z</time></trkpt>
        <trkpt lat="28.643613" lon="105.5339835"><ele>592.37</ele><time>2025-12-12T22:33:29.000Z</time></trkpt>
        <trkpt lat="28.6437151" lon="105.5339579"><ele>592.33</ele><time>2025-12-12T22:33:37.000Z</time></trkpt>
        <trkpt lat="28.6438263" lon="105.533943"><ele>592.7</ele><time>2025-12-12T22:33:45.000Z</time></trkpt>
        <trkpt lat="28.6439256" lon="105.533936"><ele>592.79</ele><time>2025-12-12T22:33:53.000Z</time></trkpt>
        <trkpt lat="28.6440223" lon="105.5339225"><ele>593.46</ele><time>2025-12-12T22:34:01.000Z</time></trkpt>
        <trkpt lat="28.6441205" lon="105.5338996"><ele>593.8</ele><time>2025-12-12T22:34:09.000Z</time></trkpt>
        <trkpt lat="28.6442159" lon="105.5338845"><ele>593.94</ele><time>2025-12-12T22:34:17.000Z</time></trkpt>
        <trkpt lat="28.6443222" lon="105.5338878"><ele>593.72</ele><time>2025-12-12T22:34:25.000Z</time></trkpt>
        <trkpt lat="28.6444228" lon="105.5338948"><ele>593.08</ele><time>2025-12-12T22:34:33.000Z</time></trkpt>
        <trkpt lat="28.6445323" lon="105.5338938"><ele>592.78</ele><time>2025-12-12T22:34:41.000Z</time></trkpt>
        <trkpt lat="28.6446411" lon="105.5338933"><ele>592.9</ele><time>2025-12-12T22:34:49.000Z</time></trkpt>
        <trkpt lat="28.6447392" lon="105.5338878"><ele>593.06</ele><time>2025-12-12T22:34:57.000Z</time></trkpt>
        <trkpt lat="28.6448403" lon="105.5338803"><ele>593.22</ele><time>2025-12-12T22:35:05.000Z</time></trkpt>
        <trkpt lat="28.6449428" lon="105.5338655"><ele>593.55</ele><time>2025-12-12T22:35:13.000Z</time></trkpt>
        <trkpt lat="28.6450398" lon="105.5338444"><ele>593.76</ele><time>2025-12-12T22:35:21.000Z</time></trkpt>
        <trkpt lat="28.6451361" lon="105.5338325"><ele>593.12</ele><time>2025-12-12T22:35:29.000Z</time></trkpt>
        <trkpt lat="28.6452347" lon="105.5338351"><ele>592</ele><time>2025-12-12T22:35:37.000Z</time></trkpt>
        <trkpt lat="28.6453382" lon="105.5338495"><ele>590.91</ele><time>2025-12-12T22:35:45.000Z</time></trkpt>
        <trkpt lat="28.6454421" lon="105.53389"><ele>589.77</ele><time>2025-12-12T22:35:53.000Z</time></trkpt>
        <trkpt lat="28.6455348" lon="105.5339301"><ele>589.16</ele><time>2025-12-12T22:36:01.000Z</time></trkpt>
        <trkpt lat="28.6456265" lon="105.5339858"><ele>588.51</ele><time>2025-12-12T22:36:19.000Z</time></trkpt>
        <trkpt lat="28.6457277" lon="105.5340409"><ele>587.91</ele><time>2025-12-12T22:36:29.000Z</time></trkpt>
        <trkpt lat="28.6458179" lon="105.5340843"><ele>587.15</ele><time>2025-12-12T22:36:37.000Z</time></trkpt>
        <trkpt lat="28.6459077" lon="105.5341163"><ele>586.78</ele><time>2025-12-12T22:36:45.000Z</time></trkpt>
        <trkpt lat="28.6460051" lon="105.5341538"><ele>586.36</ele><time>2025-12-12T22:36:55.000Z</time></trkpt>
        <trkpt lat="28.6461063" lon="105.5341864"><ele>586.21</ele><time>2025-12-12T22:37:05.000Z</time></trkpt>
        <trkpt lat="28.6462019" lon="105.5341811"><ele>585.53</ele><time>2025-12-12T22:37:13.000Z</time></trkpt>
        <trkpt lat="28.6463068" lon="105.5341548"><ele>584.65</ele><time>2025-12-12T22:37:23.000Z</time></trkpt>
        <trkpt lat="28.6463977" lon="105.5341057"><ele>582.71</ele><time>2025-12-12T22:37:31.000Z</time></trkpt>
        <trkpt lat="28.6464815" lon="105.5340432"><ele>580.57</ele><time>2025-12-12T22:37:39.000Z</time></trkpt>
        <trkpt lat="28.6465561" lon="105.5339761"><ele>579.1</ele><time>2025-12-12T22:37:47.000Z</time></trkpt>
        <trkpt lat="28.6466385" lon="105.5339253"><ele>578.5</ele><time>2025-12-12T22:37:55.000Z</time></trkpt>
        <trkpt lat="28.6467392" lon="105.5339303"><ele>577.65</ele><time>2025-12-12T22:38:03.000Z</time></trkpt>
        <trkpt lat="28.6468383" lon="105.533985"><ele>577.35</ele><time>2025-12-12T22:38:11.000Z</time></trkpt>
        <trkpt lat="28.6469405" lon="105.5340509"><ele>576.65</ele><time>2025-12-12T22:38:21.000Z</time></trkpt>
        <trkpt lat="28.6470452" lon="105.5340854"><ele>575.65</ele><time>2025-12-12T22:38:29.000Z</time></trkpt>
        <trkpt lat="28.647143" lon="105.534091"><ele>575.45</ele><time>2025-12-12T22:38:37.000Z</time></trkpt>
        <trkpt lat="28.6472321" lon="105.5340578"><ele>574.95</ele><time>2025-12-12T22:38:45.000Z</time></trkpt>
        <trkpt lat="28.6473114" lon="105.5339998"><ele>574.57</ele><time>2025-12-12T22:38:53.000Z</time></trkpt>
        <trkpt lat="28.6473825" lon="105.5339285"><ele>574.68</ele><time>2025-12-12T22:39:01.000Z</time></trkpt>
        <trkpt lat="28.6474565" lon="105.5338451"><ele>574.86</ele><time>2025-12-12T22:39:11.000Z</time></trkpt>
        <trkpt lat="28.6475271" lon="105.5337718"><ele>575.68</ele><time>2025-12-12T22:39:19.000Z</time></trkpt>
        <trkpt lat="28.6475992" lon="105.5337075"><ele>576.19</ele><time>2025-12-12T22:39:27.000Z</time></trkpt>
        <trkpt lat="28.6476744" lon="105.5336508"><ele>576.76</ele><time>2025-12-12T22:39:37.000Z</time></trkpt>
        <trkpt lat="28.6477623" lon="105.5336209"><ele>577.77</ele><time>2025-12-12T22:39:49.000Z</time></trkpt>
        <trkpt lat="28.6478671" lon="105.5336057"><ele>578.21</ele><time>2025-12-12T22:40:01.000Z</time></trkpt>
        <trkpt lat="28.647965" lon="105.5336484"><ele>579.64</ele><time>2025-12-12T22:40:13.000Z</time></trkpt>
        <trkpt lat="28.6480471" lon="105.5337098"><ele>581</ele><time>2025-12-12T22:40:23.000Z</time></trkpt>
        <trkpt lat="28.6481241" lon="105.5337883"><ele>582.36</ele><time>2025-12-12T22:40:35.000Z</time></trkpt>
        <trkpt lat="28.6481904" lon="105.5338718"><ele>584.33</ele><time>2025-12-12T22:40:47.000Z</time></trkpt>
        <trkpt lat="28.6482542" lon="105.5339621"><ele>585.51</ele><time>2025-12-12T22:40:57.000Z</time></trkpt>
        <trkpt lat="28.6483121" lon="105.5340626"><ele>587.06</ele><time>2025-12-12T22:41:07.000Z</time></trkpt>
        <trkpt lat="28.6483595" lon="105.5341622"><ele>587.99</ele><time>2025-12-12T22:41:17.000Z</time></trkpt>
        <trkpt lat="28.648376" lon="105.5342808"><ele>588.94</ele><time>2025-12-12T22:41:27.000Z</time></trkpt>
        <trkpt lat="28.6483954" lon="105.5343869"><ele>589.83</ele><time>2025-12-12T22:41:35.000Z</time></trkpt>
        <trkpt lat="28.6484101" lon="105.5345023"><ele>590.64</ele><time>2025-12-12T22:41:45.000Z</time></trkpt>
        <trkpt lat="28.6484299" lon="105.5346199"><ele>591.82</ele><time>2025-12-12T22:41:55.000Z</time></trkpt>
        <trkpt lat="28.6484589" lon="105.5347373"><ele>592.82</ele><time>2025-12-12T22:42:05.000Z</time></trkpt>
        <trkpt lat="28.6484954" lon="105.5348558"><ele>593.85</ele><time>2025-12-12T22:42:15.000Z</time></trkpt>
        <trkpt lat="28.6485384" lon="105.5349741"><ele>595.25</ele><time>2025-12-12T22:42:25.000Z</time></trkpt>
        <trkpt lat="28.6485874" lon="105.5350836"><ele>596.22</ele><time>2025-12-12T22:42:35.000Z</time></trkpt>
        <trkpt lat="28.6486335" lon="105.5351822"><ele>596.73</ele><time>2025-12-12T22:42:43.000Z</time></trkpt>
        <trkpt lat="28.6486794" lon="105.5352769"><ele>596.62</ele><time>2025-12-12T22:42:51.000Z</time></trkpt>
        <trkpt lat="28.6487301" lon="105.5353864"><ele>596.03</ele><time>2025-12-12T22:43:01.000Z</time></trkpt>
        <trkpt lat="28.6487732" lon="105.5354854"><ele>595.57</ele><time>2025-12-12T22:43:09.000Z</time></trkpt>
        <trkpt lat="28.6488198" lon="105.5355893"><ele>595.42</ele><time>2025-12-12T22:43:17.000Z</time></trkpt>
        <trkpt lat="28.6488695" lon="105.5356876"><ele>595.94</ele><time>2025-12-12T22:43:25.000Z</time></trkpt>
        <trkpt lat="28.6489233" lon="105.5357755"><ele>596.6</ele><time>2025-12-12T22:43:33.000Z</time></trkpt>
        <trkpt lat="28.6489901" lon="105.5358518"><ele>596.91</ele><time>2025-12-12T22:43:41.000Z</time></trkpt>
        <trkpt lat="28.6490841" lon="105.5359136"><ele>598.15</ele><time>2025-12-12T22:43:51.000Z</time></trkpt>
        <trkpt lat="28.6491723" lon="105.5359709"><ele>598.99</ele><time>2025-12-12T22:43:59.000Z</time></trkpt>
        <trkpt lat="28.6492683" lon="105.5360276"><ele>598.9</ele><time>2025-12-12T22:44:09.000Z</time></trkpt>
        <trkpt lat="28.6493627" lon="105.5360891"><ele>599.67</ele><time>2025-12-12T22:44:19.000Z</time></trkpt>
        <trkpt lat="28.649447" lon="105.536151"><ele>601.22</ele><time>2025-12-12T22:44:29.000Z</time></trkpt>
        <trkpt lat="28.6495362" lon="105.5362063"><ele>602.72</ele><time>2025-12-12T22:44:39.000Z</time></trkpt>
        <trkpt lat="28.6496235" lon="105.5362727"><ele>603.42</ele><time>2025-12-12T22:44:49.000Z</time></trkpt>
        <trkpt lat="28.6497105" lon="105.5363459"><ele>602.91</ele><time>2025-12-12T22:44:59.000Z</time></trkpt>
        <trkpt lat="28.6497921" lon="105.5364078"><ele>603.06</ele><time>2025-12-12T22:45:07.000Z</time></trkpt>
        <trkpt lat="28.6498729" lon="105.5364796"><ele>603.63</ele><time>2025-12-12T22:45:17.000Z</time></trkpt>
        <trkpt lat="28.6499499" lon="105.5365603"><ele>604.46</ele><time>2025-12-12T22:45:27.000Z</time></trkpt>
        <trkpt lat="28.650027" lon="105.5366447"><ele>605.53</ele><time>2025-12-12T22:45:37.000Z</time></trkpt>
        <trkpt lat="28.6501032" lon="105.5367343"><ele>606.86</ele><time>2025-12-12T22:45:47.000Z</time></trkpt>
        <trkpt lat="28.6501705" lon="105.5368118"><ele>608.16</ele><time>2025-12-12T22:45:55.000Z</time></trkpt>
        <trkpt lat="28.6502453" lon="105.5368946"><ele>609.49</ele><time>2025-12-12T22:46:05.000Z</time></trkpt>
        <trkpt lat="28.6503182" lon="105.5369657"><ele>610.86</ele><time>2025-12-12T22:46:13.000Z</time></trkpt>
        <trkpt lat="28.6504014" lon="105.5370026"><ele>612.34</ele><time>2025-12-12T22:46:21.000Z</time></trkpt>
        <trkpt lat="28.6504797" lon="105.5370558"><ele>613.33</ele><time>2025-12-12T22:46:29.000Z</time></trkpt>
        <trkpt lat="28.6505597" lon="105.5371059"><ele>614.08</ele><time>2025-12-12T22:46:37.000Z</time></trkpt>
        <trkpt lat="28.6506524" lon="105.5371369"><ele>614.77</ele><time>2025-12-12T22:46:45.000Z</time></trkpt>
        <trkpt lat="28.6507391" lon="105.5371805"><ele>615.3</ele><time>2025-12-12T22:46:53.000Z</time></trkpt>
        <trkpt lat="28.6508278" lon="105.5371761"><ele>615.4</ele><time>2025-12-12T22:47:01.000Z</time></trkpt>
        <trkpt lat="28.650918" lon="105.5371499"><ele>614.55</ele><time>2025-12-12T22:47:09.000Z</time></trkpt>
        <trkpt lat="28.6510114" lon="105.5371301"><ele>614.26</ele><time>2025-12-12T22:47:17.000Z</time></trkpt>
        <trkpt lat="28.6511047" lon="105.5370901"><ele>612.95</ele><time>2025-12-12T22:47:27.000Z</time></trkpt>
        <trkpt lat="28.6511958" lon="105.5370596"><ele>612.35</ele><time>2025-12-12T22:47:35.000Z</time></trkpt>
        <trkpt lat="28.6512893" lon="105.5370344"><ele>612.28</ele><time>2025-12-12T22:47:43.000Z</time></trkpt>
        <trkpt lat="28.651393" lon="105.5370329"><ele>611.64</ele><time>2025-12-12T22:47:53.000Z</time></trkpt>
        <trkpt lat="28.6515017" lon="105.5370635"><ele>610.27</ele><time>2025-12-12T22:48:03.000Z</time></trkpt>
        <trkpt lat="28.6515894" lon="105.537123"><ele>608.18</ele><time>2025-12-12T22:48:11.000Z</time></trkpt>
        <trkpt lat="28.6516658" lon="105.5371966"><ele>606.02</ele><time>2025-12-12T22:48:19.000Z</time></trkpt>
        <trkpt lat="28.651737" lon="105.5372733"><ele>604.58</ele><time>2025-12-12T22:48:27.000Z</time></trkpt>
        <trkpt lat="28.6518053" lon="105.5373498"><ele>603.36</ele><time>2025-12-12T22:48:35.000Z</time></trkpt>
        <trkpt lat="28.6518832" lon="105.5374105"><ele>602.36</ele><time>2025-12-12T22:48:43.000Z</time></trkpt>
        <trkpt lat="28.651963" lon="105.5374736"><ele>601.63</ele><time>2025-12-12T22:48:51.000Z</time></trkpt>
        <trkpt lat="28.6520654" lon="105.5375075"><ele>601.09</ele><time>2025-12-12T22:48:59.000Z</time></trkpt>
        <trkpt lat="28.6521688" lon="105.5375087"><ele>600.2</ele><time>2025-12-12T22:49:07.000Z</time></trkpt>
        <trkpt lat="28.6522726" lon="105.5374731"><ele>599.45</ele><time>2025-12-12T22:49:15.000Z</time></trkpt>
        <trkpt lat="28.6523649" lon="105.5374162"><ele>599.77</ele><time>2025-12-12T22:49:23.000Z</time></trkpt>
        <trkpt lat="28.6524449" lon="105.5373482"><ele>599.86</ele><time>2025-12-12T22:49:31.000Z</time></trkpt>
        <trkpt lat="28.652512" lon="105.5372606"><ele>600.21</ele><time>2025-12-12T22:49:39.000Z</time></trkpt>
        <trkpt lat="28.6525629" lon="105.5371614"><ele>600.57</ele><time>2025-12-12T22:49:47.000Z</time></trkpt>
        <trkpt lat="28.6526015" lon="105.5370591"><ele>601.57</ele><time>2025-12-12T22:49:55.000Z</time></trkpt>
        <trkpt lat="28.6526467" lon="105.5369481"><ele>602.57</ele><time>2025-12-12T22:50:05.000Z</time></trkpt>
        <trkpt lat="28.6526875" lon="105.5368422"><ele>603.41</ele><time>2025-12-12T22:50:13.000Z</time></trkpt>
        <trkpt lat="28.6527353" lon="105.5367256"><ele>604.27</ele><time>2025-12-12T22:50:23.000Z</time></trkpt>
        <trkpt lat="28.6527768" lon="105.5366251"><ele>605.1</ele><time>2025-12-12T22:50:31.000Z</time></trkpt>
        <trkpt lat="28.6528229" lon="105.5365189"><ele>605.67</ele><time>2025-12-12T22:50:41.000Z</time></trkpt>
        <trkpt lat="28.6528704" lon="105.536409"><ele>606.26</ele><time>2025-12-12T22:50:51.000Z</time></trkpt>
        <trkpt lat="28.6529186" lon="105.5362955"><ele>606.6</ele><time>2025-12-12T22:51:01.000Z</time></trkpt>
        <trkpt lat="28.6529609" lon="105.536193"><ele>607.07</ele><time>2025-12-12T22:51:09.000Z</time></trkpt>
        <trkpt lat="28.6530002" lon="105.5360957"><ele>607.45</ele><time>2025-12-12T22:51:17.000Z</time></trkpt>
        <trkpt lat="28.6530424" lon="105.5360001"><ele>607.4</ele><time>2025-12-12T22:51:25.000Z</time></trkpt>
        <trkpt lat="28.6530755" lon="105.5359161"><ele>607.6</ele><time>2025-12-12T22:51:33.000Z</time></trkpt>
        <trkpt lat="28.653114" lon="105.5358258"><ele>608.32</ele><time>2025-12-12T22:51:43.000Z</time></trkpt>
        <trkpt lat="28.6531568" lon="105.5357264"><ele>609.51</ele><time>2025-12-12T22:51:53.000Z</time></trkpt>
        <trkpt lat="28.6532093" lon="105.5356257"><ele>610.94</ele><time>2025-12-12T22:52:03.000Z</time></trkpt>
        <trkpt lat="28.6532841" lon="105.5355426"><ele>612.09</ele><time>2025-12-12T22:52:13.000Z</time></trkpt>
        <trkpt lat="28.6533635" lon="105.5354752"><ele>613.65</ele><time>2025-12-12T22:52:23.000Z</time></trkpt>
        <trkpt lat="28.6534459" lon="105.5354202"><ele>615.31</ele><time>2025-12-12T22:52:35.000Z</time></trkpt>
        <trkpt lat="28.6535344" lon="105.5353944"><ele>617.02</ele><time>2025-12-12T22:52:43.000Z</time></trkpt>
        <trkpt lat="28.6536388" lon="105.5353945"><ele>619</ele><time>2025-12-12T22:52:53.000Z</time></trkpt>
        <trkpt lat="28.6537372" lon="105.5354187"><ele>620</ele><time>2025-12-12T22:53:01.000Z</time></trkpt>
        <trkpt lat="28.6538284" lon="105.5354573"><ele>620.5</ele><time>2025-12-12T22:53:09.000Z</time></trkpt>
        <trkpt lat="28.6539242" lon="105.5355099"><ele>620.87</ele><time>2025-12-12T22:53:17.000Z</time></trkpt>
        <trkpt lat="28.6540147" lon="105.5355718"><ele>620.87</ele><time>2025-12-12T22:53:25.000Z</time></trkpt>
        <trkpt lat="28.6541039" lon="105.5356279"><ele>620.83</ele><time>2025-12-12T22:53:33.000Z</time></trkpt>
        <trkpt lat="28.6541936" lon="105.5356871"><ele>621.07</ele><time>2025-12-12T22:53:41.000Z</time></trkpt>
        <trkpt lat="28.6542817" lon="105.5357357"><ele>621.38</ele><time>2025-12-12T22:53:49.000Z</time></trkpt>
        <trkpt lat="28.6543604" lon="105.5357958"><ele>621.36</ele><time>2025-12-12T22:53:57.000Z</time></trkpt>
        <trkpt lat="28.6544532" lon="105.5358495"><ele>621.55</ele><time>2025-12-12T22:54:07.000Z</time></trkpt>
        <trkpt lat="28.6545415" lon="105.5358926"><ele>621.51</ele><time>2025-12-12T22:54:15.000Z</time></trkpt>
        <trkpt lat="28.6546337" lon="105.5359081"><ele>621.04</ele><time>2025-12-12T22:54:23.000Z</time></trkpt>
        <trkpt lat="28.6547314" lon="105.535875"><ele>620.48</ele><time>2025-12-12T22:54:31.000Z</time></trkpt>
        <trkpt lat="28.6548075" lon="105.5358016"><ele>619.29</ele><time>2025-12-12T22:54:39.000Z</time></trkpt>
        <trkpt lat="28.6548559" lon="105.5356991"><ele>618.38</ele><time>2025-12-12T22:54:47.000Z</time></trkpt>
        <trkpt lat="28.6548895" lon="105.5355908"><ele>618.09</ele><time>2025-12-12T22:54:55.000Z</time></trkpt>
        <trkpt lat="28.6549145" lon="105.5354776"><ele>617.66</ele><time>2025-12-12T22:55:03.000Z</time></trkpt>
        <trkpt lat="28.6549358" lon="105.5353711"><ele>617.76</ele><time>2025-12-12T22:55:11.000Z</time></trkpt>
        <trkpt lat="28.6549708" lon="105.535259"><ele>618.09</ele><time>2025-12-12T22:55:19.000Z</time></trkpt>
        <trkpt lat="28.6550194" lon="105.5351449"><ele>618.33</ele><time>2025-12-12T22:55:29.000Z</time></trkpt>
        <trkpt lat="28.6550906" lon="105.5350438"><ele>618.56</ele><time>2025-12-12T22:55:39.000Z</time></trkpt>
        <trkpt lat="28.6551707" lon="105.5349753"><ele>619.21</ele><time>2025-12-12T22:55:47.000Z</time></trkpt>
        <trkpt lat="28.655264" lon="105.534919"><ele>620.16</ele><time>2025-12-12T22:55:59.000Z</time></trkpt>
        <trkpt lat="28.6553566" lon="105.534864"><ele>621.03</ele><time>2025-12-12T22:56:07.000Z</time></trkpt>
        <trkpt lat="28.6554509" lon="105.5348164"><ele>621.61</ele><time>2025-12-12T22:56:15.000Z</time></trkpt>
        <trkpt lat="28.6555411" lon="105.5347642"><ele>622.17</ele><time>2025-12-12T22:56:23.000Z</time></trkpt>
        <trkpt lat="28.6556321" lon="105.5347047"><ele>622.38</ele><time>2025-12-12T22:56:33.000Z</time></trkpt>
        <trkpt lat="28.6557171" lon="105.534731"><ele>622.4</ele><time>2025-12-12T22:56:43.000Z</time></trkpt>
        <trkpt lat="28.6557722" lon="105.5348142"><ele>622.45</ele><time>2025-12-12T22:56:53.000Z</time></trkpt>
        <trkpt lat="28.6558018" lon="105.5349293"><ele>622.72</ele><time>2025-12-12T22:57:03.000Z</time></trkpt>
        <trkpt lat="28.6558005" lon="105.53505"><ele>623.58</ele><time>2025-12-12T22:57:17.000Z</time></trkpt>
        <trkpt lat="28.6557996" lon="105.5351749"><ele>625.99</ele><time>2025-12-12T22:57:33.000Z</time></trkpt>
        <trkpt lat="28.6557824" lon="105.5352901"><ele>627.98</ele><time>2025-12-12T22:57:45.000Z</time></trkpt>
        <trkpt lat="28.6557487" lon="105.5353987"><ele>629.29</ele><time>2025-12-12T22:58:01.000Z</time></trkpt>
        <trkpt lat="28.6556808" lon="105.5354863"><ele>630.98</ele><time>2025-12-12T22:58:13.000Z</time></trkpt>
        <trkpt lat="28.6556033" lon="105.5355635"><ele>632.98</ele><time>2025-12-12T22:58:23.000Z</time></trkpt>
        <trkpt lat="28.655514" lon="105.5356297"><ele>635.27</ele><time>2025-12-12T22:58:33.000Z</time></trkpt>
        <trkpt lat="28.6554252" lon="105.5356614"><ele>637.09</ele><time>2025-12-12T22:58:43.000Z</time></trkpt>
        <trkpt lat="28.6553692" lon="105.5357389"><ele>638.16</ele><time>2025-12-12T22:59:03.000Z</time></trkpt>
        <trkpt lat="28.6553413" lon="105.5358357"><ele>637.45</ele><time>2025-12-12T22:59:13.000Z</time></trkpt>
        <trkpt lat="28.6553226" lon="105.5359517"><ele>636.53</ele><time>2025-12-12T22:59:23.000Z</time></trkpt>
        <trkpt lat="28.6552945" lon="105.5360646"><ele>636.27</ele><time>2025-12-12T22:59:33.000Z</time></trkpt>
        <trkpt lat="28.6552817" lon="105.5361839"><ele>636.32</ele><time>2025-12-12T22:59:43.000Z</time></trkpt>
        <trkpt lat="28.655261" lon="105.5363115"><ele>636.8</ele><time>2025-12-12T22:59:53.000Z</time></trkpt>
        <trkpt lat="28.6552206" lon="105.5364245"><ele>637.62</ele><time>2025-12-12T23:00:01.000Z</time></trkpt>
        <trkpt lat="28.6551675" lon="105.5365189"><ele>638.3</ele><time>2025-12-12T23:00:09.000Z</time></trkpt>
        <trkpt lat="28.6551129" lon="105.5366056"><ele>638.18</ele><time>2025-12-12T23:00:19.000Z</time></trkpt>
        <trkpt lat="28.6550704" lon="105.5366983"><ele>638.26</ele><time>2025-12-12T23:00:33.000Z</time></trkpt>
        <trkpt lat="28.6550827" lon="105.5367949"><ele>638.14</ele><time>2025-12-12T23:00:41.000Z</time></trkpt>
        <trkpt lat="28.6551664" lon="105.5368326"><ele>637.95</ele><time>2025-12-12T23:00:49.000Z</time></trkpt>
        <trkpt lat="28.6552679" lon="105.5368427"><ele>638.58</ele><time>2025-12-12T23:00:57.000Z</time></trkpt>
        <trkpt lat="28.6553814" lon="105.536837"><ele>637.85</ele><time>2025-12-12T23:01:07.000Z</time></trkpt>
        <trkpt lat="28.6554853" lon="105.536842"><ele>636.71</ele><time>2025-12-12T23:01:15.000Z</time></trkpt>
        <trkpt lat="28.655585" lon="105.5368649"><ele>635.39</ele><time>2025-12-12T23:01:25.000Z</time></trkpt>
        <trkpt lat="28.6556566" lon="105.5369386"><ele>633.37</ele><time>2025-12-12T23:01:37.000Z</time></trkpt>
        <trkpt lat="28.6556385" lon="105.5370324"><ele>632.7</ele><time>2025-12-12T23:01:49.000Z</time></trkpt>
        <trkpt lat="28.6555629" lon="105.5371141"><ele>632.36</ele><time>2025-12-12T23:01:59.000Z</time></trkpt>
        <trkpt lat="28.6554694" lon="105.5371939"><ele>633.18</ele><time>2025-12-12T23:02:09.000Z</time></trkpt>
        <trkpt lat="28.6553765" lon="105.5372769"><ele>633.22</ele><time>2025-12-12T23:02:17.000Z</time></trkpt>
        <trkpt lat="28.6552982" lon="105.5373635"><ele>633.6</ele><time>2025-12-12T23:02:29.000Z</time></trkpt>
        <trkpt lat="28.6552622" lon="105.5374721"><ele>633.07</ele><time>2025-12-12T23:02:49.000Z</time></trkpt>
        <trkpt lat="28.6552435" lon="105.537595"><ele>632.06</ele><time>2025-12-12T23:02:59.000Z</time></trkpt>
        <trkpt lat="28.6551879" lon="105.537678"><ele>631.89</ele><time>2025-12-12T23:03:07.000Z</time></trkpt>
        <trkpt lat="28.6550964" lon="105.5376949"><ele>631.06</ele><time>2025-12-12T23:03:15.000Z</time></trkpt>
        <trkpt lat="28.6549989" lon="105.5377094"><ele>630.66</ele><time>2025-12-12T23:03:23.000Z</time></trkpt>
        <trkpt lat="28.654913" lon="105.53776"><ele>630.68</ele><time>2025-12-12T23:03:33.000Z</time></trkpt>
        <trkpt lat="28.6548417" lon="105.5378291"><ele>631.57</ele><time>2025-12-12T23:03:45.000Z</time></trkpt>
        <trkpt lat="28.6547954" lon="105.5379382"><ele>633.06</ele><time>2025-12-12T23:03:55.000Z</time></trkpt>
        <trkpt lat="28.6547904" lon="105.5380558"><ele>633.95</ele><time>2025-12-12T23:04:03.000Z</time></trkpt>
        <trkpt lat="28.6547769" lon="105.5381751"><ele>634.45</ele><time>2025-12-12T23:04:11.000Z</time></trkpt>
        <trkpt lat="28.6547483" lon="105.5382871"><ele>634.99</ele><time>2025-12-12T23:04:19.000Z</time></trkpt>
        <trkpt lat="28.654749" lon="105.5384023"><ele>635.13</ele><time>2025-12-12T23:04:27.000Z</time></trkpt>
        <trkpt lat="28.6547331" lon="105.5385145"><ele>634.26</ele><time>2025-12-12T23:04:35.000Z</time></trkpt>
        <trkpt lat="28.6547232" lon="105.5386319"><ele>633.89</ele><time>2025-12-12T23:04:43.000Z</time></trkpt>
        <trkpt lat="28.6547318" lon="105.5387459"><ele>634.51</ele><time>2025-12-12T23:04:51.000Z</time></trkpt>
        <trkpt lat="28.6547668" lon="105.5388535"><ele>634.28</ele><time>2025-12-12T23:04:59.000Z</time></trkpt>
        <trkpt lat="28.6548045" lon="105.5389586"><ele>635.52</ele><time>2025-12-12T23:05:07.000Z</time></trkpt>
        <trkpt lat="28.6548365" lon="105.5390594"><ele>636.04</ele><time>2025-12-12T23:05:17.000Z</time></trkpt>
        <trkpt lat="28.6548546" lon="105.5391651"><ele>635.2</ele><time>2025-12-12T23:05:25.000Z</time></trkpt>
        <trkpt lat="28.6548772" lon="105.5392795"><ele>634.77</ele><time>2025-12-12T23:05:35.000Z</time></trkpt>
        <trkpt lat="28.6549676" lon="105.5393265"><ele>633.88</ele><time>2025-12-12T23:06:01.000Z</time></trkpt>
        <trkpt lat="28.6550689" lon="105.5393354"><ele>632.45</ele><time>2025-12-12T23:06:11.000Z</time></trkpt>
        <trkpt lat="28.6551796" lon="105.5393208"><ele>631.32</ele><time>2025-12-12T23:06:23.000Z</time></trkpt>
        <trkpt lat="28.6552891" lon="105.5392968"><ele>630.43</ele><time>2025-12-12T23:06:37.000Z</time></trkpt>
        <trkpt lat="28.6553903" lon="105.5392743"><ele>629.08</ele><time>2025-12-12T23:06:47.000Z</time></trkpt>
        <trkpt lat="28.6554829" lon="105.5392501"><ele>627.98</ele><time>2025-12-12T23:07:15.000Z</time></trkpt>
        <trkpt lat="28.6555801" lon="105.5392293"><ele>626.01</ele><time>2025-12-12T23:07:27.000Z</time></trkpt>
        <trkpt lat="28.6556876" lon="105.5392304"><ele>624.43</ele><time>2025-12-12T23:07:37.000Z</time></trkpt>
        <trkpt lat="28.6557934" lon="105.5392529"><ele>622.37</ele><time>2025-12-12T23:07:47.000Z</time></trkpt>
        <trkpt lat="28.6558785" lon="105.5393075"><ele>620.95</ele><time>2025-12-12T23:07:57.000Z</time></trkpt>
        <trkpt lat="28.6559487" lon="105.5393781"><ele>620.4</ele><time>2025-12-12T23:08:09.000Z</time></trkpt>
        <trkpt lat="28.655999" lon="105.5394346"><ele>620.11</ele><time>2025-12-12T23:08:21.000Z</time></trkpt>
        <trkpt lat="28.6560751" lon="105.5394642"><ele>619.77</ele><time>2025-12-12T23:08:39.000Z</time></trkpt>
        <trkpt lat="28.6561702" lon="105.5394928"><ele>619.5</ele><time>2025-12-12T23:08:51.000Z</time></trkpt>
        <trkpt lat="28.656267" lon="105.5394875"><ele>620.36</ele><time>2025-12-12T23:09:03.000Z</time></trkpt>
        <trkpt lat="28.6563569" lon="105.5395155"><ele>621.7</ele><time>2025-12-12T23:09:15.000Z</time></trkpt>
        <trkpt lat="28.6564575" lon="105.5395405"><ele>622.6</ele><time>2025-12-12T23:09:27.000Z</time></trkpt>
        <trkpt lat="28.6565452" lon="105.5395929"><ele>623.96</ele><time>2025-12-12T23:09:39.000Z</time></trkpt>
        <trkpt lat="28.656634" lon="105.5396527"><ele>624.52</ele><time>2025-12-12T23:09:49.000Z</time></trkpt>
        <trkpt lat="28.6567251" lon="105.53971"><ele>624.1</ele><time>2025-12-12T23:10:01.000Z</time></trkpt>
        <trkpt lat="28.656785" lon="105.5397959"><ele>623.53</ele><time>2025-12-12T23:10:17.000Z</time></trkpt>
        <trkpt lat="28.6568164" lon="105.539902"><ele>622.34</ele><time>2025-12-12T23:10:31.000Z</time></trkpt>
        <trkpt lat="28.6568292" lon="105.5400152"><ele>622.51</ele><time>2025-12-12T23:10:49.000Z</time></trkpt>
        <trkpt lat="28.6568448" lon="105.5401301"><ele>623.53</ele><time>2025-12-12T23:11:05.000Z</time></trkpt>
        <trkpt lat="28.6567721" lon="105.5401692"><ele>625.05</ele><time>2025-12-12T23:11:19.000Z</time></trkpt>
        <trkpt lat="28.6566867" lon="105.5402165"><ele>627.41</ele><time>2025-12-12T23:11:35.000Z</time></trkpt>
        <trkpt lat="28.656595" lon="105.5402724"><ele>630.02</ele><time>2025-12-12T23:12:05.000Z</time></trkpt>
        <trkpt lat="28.6564952" lon="105.5403028"><ele>632.2</ele><time>2025-12-12T23:12:21.000Z</time></trkpt>
        <trkpt lat="28.6564098" lon="105.5403548"><ele>635.15</ele><time>2025-12-12T23:12:41.000Z</time></trkpt>
        <trkpt lat="28.6563278" lon="105.5404135"><ele>637.72</ele><time>2025-12-12T23:12:57.000Z</time></trkpt>
        <trkpt lat="28.6562613" lon="105.5404897"><ele>638.9</ele><time>2025-12-12T23:13:09.000Z</time></trkpt>
        <trkpt lat="28.656202" lon="105.5405717"><ele>639.95</ele><time>2025-12-12T23:13:21.000Z</time></trkpt>
        <trkpt lat="28.6561237" lon="105.5406458"><ele>641.56</ele><time>2025-12-12T23:13:35.000Z</time></trkpt>
        <trkpt lat="28.6560491" lon="105.5407159"><ele>642.55</ele><time>2025-12-12T23:13:45.000Z</time></trkpt>
        <trkpt lat="28.6559824" lon="105.5408076"><ele>643.8</ele><time>2025-12-12T23:13:55.000Z</time></trkpt>
        <trkpt lat="28.6559378" lon="105.5408868"><ele>645.08</ele><time>2025-12-12T23:14:05.000Z</time></trkpt>
        <trkpt lat="28.6558884" lon="105.5409863"><ele>645.94</ele><time>2025-12-12T23:14:25.000Z</time></trkpt>
        <trkpt lat="28.6558298" lon="105.541075"><ele>645.56</ele><time>2025-12-12T23:14:33.000Z</time></trkpt>
        <trkpt lat="28.6557611" lon="105.5411497"><ele>645.7</ele><time>2025-12-12T23:14:43.000Z</time></trkpt>
        <trkpt lat="28.6556869" lon="105.5412235"><ele>646.49</ele><time>2025-12-12T23:14:53.000Z</time></trkpt>
        <trkpt lat="28.6555896" lon="105.5412746"><ele>647.81</ele><time>2025-12-12T23:15:03.000Z</time></trkpt>
        <trkpt lat="28.6554922" lon="105.5413042"><ele>648.52</ele><time>2025-12-12T23:15:25.000Z</time></trkpt>
        <trkpt lat="28.6554096" lon="105.5413549"><ele>649.16</ele><time>2025-12-12T23:15:33.000Z</time></trkpt>
        <trkpt lat="28.65535" lon="105.5414344"><ele>650.04</ele><time>2025-12-12T23:15:41.000Z</time></trkpt>
        <trkpt lat="28.6552908" lon="105.5415145"><ele>650.9</ele><time>2025-12-12T23:15:51.000Z</time></trkpt>
        <trkpt lat="28.6552267" lon="105.5416045"><ele>651.38</ele><time>2025-12-12T23:16:03.000Z</time></trkpt>
        <trkpt lat="28.6551636" lon="105.5416882"><ele>650.87</ele><time>2025-12-12T23:16:13.000Z</time></trkpt>
        <trkpt lat="28.6550864" lon="105.5417743"><ele>651.24</ele><time>2025-12-12T23:16:23.000Z</time></trkpt>
        <trkpt lat="28.6550565" lon="105.5417994"><ele>650.66</ele><time>2025-12-12T23:16:25.000Z</time></trkpt>
        <trkpt lat="28.654984" lon="105.5418212"><ele>650.41</ele><time>2025-12-12T23:16:45.000Z</time></trkpt>
        <trkpt lat="28.6549311" lon="105.5419092"><ele>650.15</ele><time>2025-12-12T23:16:57.000Z</time></trkpt>
        <trkpt lat="28.6548908" lon="105.5420132"><ele>650.16</ele><time>2025-12-12T23:17:07.000Z</time></trkpt>
        <trkpt lat="28.6548481" lon="105.5421246"><ele>652.13</ele><time>2025-12-12T23:17:21.000Z</time></trkpt>
        <trkpt lat="28.6547875" lon="105.5422269"><ele>653.5</ele><time>2025-12-12T23:17:35.000Z</time></trkpt>
        <trkpt lat="28.6547223" lon="105.542321"><ele>654.43</ele><time>2025-12-12T23:17:45.000Z</time></trkpt>
        <trkpt lat="28.6546653" lon="105.5424182"><ele>655.87</ele><time>2025-12-12T23:17:57.000Z</time></trkpt>
        <trkpt lat="28.6546549" lon="105.5425326"><ele>655.97</ele><time>2025-12-12T23:18:07.000Z</time></trkpt>
        <trkpt lat="28.6546454" lon="105.5426527"><ele>656.12</ele><time>2025-12-12T23:18:19.000Z</time></trkpt>
        <trkpt lat="28.6546238" lon="105.5427655"><ele>656.81</ele><time>2025-12-12T23:18:31.000Z</time></trkpt>
        <trkpt lat="28.6546238" lon="105.5427655"><ele>656.81</ele><time>2025-12-12T23:19:10.000Z</time></trkpt>
      </trkseg>
  </trk>
</gpx>